createdAt,value
2022-07-26T00:00:00.138Z,26.7
2022-07-26T00:05:00.144Z,26.8
2022-07-26T00:10:00.134Z,26.7
2022-07-26T00:15:01.539Z,26.7
2022-07-26T00:20:00.177Z,26.7
2022-07-26T00:25:00.146Z,26.7
2022-07-26T00:30:00.131Z,26.7
2022-07-26T00:35:00.120Z,26.7
2022-07-26T00:40:00.107Z,26.6
2022-07-26T00:45:00.092Z,26.6
2022-07-26T00:50:00.139Z,26.6
2022-07-26T00:55:00.082Z,26.5
2022-07-26T01:00:00.127Z,26.5
2022-07-26T01:05:00.116Z,26.5
2022-07-26T01:10:00.080Z,26.4
2022-07-26T01:15:01.190Z,26.3
2022-07-26T01:20:00.141Z,26.2
2022-07-26T01:25:00.078Z,26.1
2022-07-26T01:30:00.101Z,26.1
2022-07-26T01:35:00.109Z,26.0
2022-07-26T01:40:00.118Z,26.0
2022-07-26T01:45:00.103Z,25.9
2022-07-26T01:50:00.132Z,25.9
2022-07-26T01:55:00.094Z,25.8
2022-07-26T02:00:00.088Z,25.8
2022-07-26T02:05:00.145Z,25.7
2022-07-26T02:10:00.112Z,25.7
2022-07-26T02:15:00.098Z,25.6
2022-07-26T02:20:00.129Z,25.5
2022-07-26T02:25:04.612Z,25.5
2022-07-26T02:30:00.122Z,25.5
2022-07-26T02:35:00.115Z,25.4
2022-07-26T02:40:02.283Z,25.4
2022-07-26T02:45:00.075Z,25.4
2022-07-26T02:50:00.156Z,25.3
2022-07-26T02:55:00.087Z,25.3
2022-07-26T03:00:00.140Z,25.2
2022-07-26T03:05:00.114Z,25.2
2022-07-26T03:10:00.110Z,25.2
2022-07-26T03:15:00.095Z,25.1
2022-07-26T03:20:00.152Z,25.0
2022-07-26T03:25:00.192Z,25.0
2022-07-26T03:30:00.136Z,25.0
2022-07-26T03:35:00.136Z,25.0
2022-07-26T03:40:00.127Z,25.0
2022-07-26T03:45:00.085Z,24.9
2022-07-26T03:50:00.149Z,24.9
2022-07-26T03:55:00.096Z,24.9
2022-07-26T04:00:00.145Z,24.8
2022-07-26T04:05:00.107Z,24.8
2022-07-26T04:10:02.523Z,24.7
2022-07-26T04:15:00.084Z,24.7
2022-07-26T04:20:00.154Z,24.7
2022-07-26T04:25:00.094Z,24.6
2022-07-26T04:30:00.114Z,24.5
2022-07-26T04:35:00.119Z,24.5
2022-07-26T04:40:03.022Z,24.5
2022-07-26T04:45:03.169Z,24.4
2022-07-26T04:50:00.162Z,24.4
2022-07-26T04:55:00.104Z,24.4
2022-07-26T05:00:20.589Z,24.3
2022-07-26T05:05:00.112Z,24.3
2022-07-26T05:10:00.101Z,24.3
2022-07-26T05:15:00.087Z,24.3
2022-07-26T05:20:03.119Z,24.2
2022-07-26T05:25:00.082Z,24.2
2022-07-26T05:30:00.107Z,24.2
2022-07-26T05:35:00.122Z,24.1
2022-07-26T05:40:00.112Z,24.1
2022-07-26T05:45:00.106Z,24.0
2022-07-26T05:50:00.153Z,24.1
2022-07-26T05:55:00.093Z,24.0
2022-07-26T06:00:00.096Z,24.0
2022-07-26T06:05:00.112Z,24.0
2022-07-26T06:10:01.797Z,24.0
2022-07-26T06:15:00.123Z,24.0
2022-07-26T06:20:01.017Z,24.0
2022-07-26T06:25:00.119Z,24.0
2022-07-26T06:30:00.141Z,24.0
2022-07-26T06:35:00.148Z,24.0
2022-07-26T06:40:00.151Z,24.0
2022-07-26T06:45:00.106Z,24.0
2022-07-26T06:50:00.132Z,24.0
2022-07-26T06:55:02.691Z,24.0
2022-07-26T07:00:00.113Z,23.9
2022-07-26T07:05:01.309Z,23.9
2022-07-26T07:10:00.120Z,23.9
2022-07-26T07:15:00.122Z,23.8
2022-07-26T07:20:00.111Z,23.9
2022-07-26T07:25:00.113Z,24.0
2022-07-26T07:30:00.156Z,24.0
2022-07-26T07:35:00.138Z,24.0
2022-07-26T07:40:00.124Z,24.1
2022-07-26T07:45:00.102Z,24.2
2022-07-26T07:50:00.121Z,24.2
2022-07-26T07:55:18.046Z,24.2
2022-07-26T08:00:00.118Z,24.3
2022-07-26T08:05:11.555Z,24.3
2022-07-26T08:10:00.136Z,24.4
2022-07-26T08:15:00.090Z,24.5
2022-07-26T08:20:00.572Z,24.5
2022-07-26T08:25:00.118Z,24.6
2022-07-26T08:30:00.110Z,24.6
2022-07-26T08:35:02.214Z,24.6
2022-07-26T08:40:00.164Z,24.7
2022-07-26T08:45:00.137Z,24.8
2022-07-26T08:50:00.096Z,24.8
2022-07-26T08:55:00.106Z,24.8
2022-07-26T09:00:00.116Z,24.9
2022-07-26T09:05:00.100Z,24.9
2022-07-26T09:10:00.158Z,25.0
2022-07-26T09:15:00.106Z,25.0
2022-07-26T09:20:00.120Z,25.0
2022-07-26T09:25:00.159Z,25.0
2022-07-26T09:30:00.135Z,25.1
2022-07-26T09:35:00.442Z,25.1
2022-07-26T09:40:00.121Z,25.1
2022-07-26T09:45:01.233Z,25.1
2022-07-26T09:50:00.198Z,25.1
2022-07-26T09:55:00.108Z,25.2
2022-07-26T10:00:00.115Z,25.2
2022-07-26T10:05:00.086Z,25.2
2022-07-26T10:10:00.134Z,25.2
2022-07-26T10:15:00.091Z,25.2
2022-07-26T10:20:00.121Z,25.3
2022-07-26T10:25:00.105Z,25.3
2022-07-26T10:30:01.862Z,25.3
2022-07-26T10:35:00.102Z,25.3
2022-07-26T10:40:00.144Z,25.4
2022-07-26T10:45:00.085Z,25.4
2022-07-26T10:50:00.137Z,25.4
2022-07-26T10:55:00.099Z,25.4
2022-07-26T11:00:00.107Z,25.4
2022-07-26T11:05:00.113Z,25.5
2022-07-26T11:10:00.124Z,25.5
2022-07-26T11:15:00.101Z,25.4
2022-07-26T11:20:00.137Z,25.5
2022-07-26T11:25:00.126Z,25.5
2022-07-26T11:30:00.312Z,25.5
2022-07-26T11:35:00.144Z,25.5
2022-07-26T11:40:00.197Z,25.4
2022-07-26T11:45:00.101Z,25.5
2022-07-26T11:55:00.146Z,25.5
2022-07-26T12:00:00.246Z,25.5
2022-07-26T12:05:00.251Z,25.5
2022-07-26T12:10:00.117Z,25.5
2022-07-26T12:15:01.188Z,25.5
2022-07-26T12:20:00.126Z,25.5
2022-07-26T12:25:00.126Z,25.5
2022-07-26T12:30:00.118Z,25.5
2022-07-26T12:35:01.211Z,25.5
2022-07-26T12:40:00.132Z,25.5
2022-07-26T12:45:00.095Z,25.5
2022-07-26T12:50:00.096Z,25.5
2022-07-26T12:55:00.127Z,25.5
2022-07-26T13:00:00.109Z,25.5
2022-07-26T13:05:00.626Z,25.5
2022-07-26T13:10:30.312Z,25.5
2022-07-26T13:15:00.088Z,25.5
2022-07-26T13:20:00.110Z,25.5
2022-07-26T13:25:00.106Z,25.5
2022-07-26T13:30:00.118Z,25.5
2022-07-26T13:35:00.088Z,25.5
2022-07-26T13:40:00.168Z,25.5
2022-07-26T13:45:00.093Z,25.5
2022-07-26T13:50:00.257Z,25.5
2022-07-26T13:55:00.105Z,25.5
2022-07-26T14:00:00.124Z,25.5
2022-07-26T14:05:00.101Z,25.5
2022-07-26T14:10:00.122Z,25.5
2022-07-26T14:15:00.088Z,25.5
2022-07-26T14:20:00.176Z,25.5
2022-07-26T14:25:00.151Z,25.5
2022-07-26T14:30:00.135Z,25.5
2022-07-26T14:35:00.089Z,25.5
2022-07-26T14:40:00.123Z,25.5
2022-07-26T14:45:00.086Z,25.5
2022-07-26T14:50:04.298Z,25.5
2022-07-26T14:55:00.121Z,25.5
2022-07-26T15:00:00.090Z,25.5
2022-07-26T15:05:00.080Z,25.6
2022-07-26T15:10:00.121Z,25.6
2022-07-26T15:15:00.092Z,25.6
2022-07-26T15:20:00.111Z,25.6
2022-07-26T15:25:00.106Z,25.7
2022-07-26T15:30:04.049Z,25.6
2022-07-26T15:35:00.089Z,25.7
2022-07-26T15:40:00.144Z,25.7
2022-07-26T15:45:00.098Z,25.7
2022-07-26T15:50:00.126Z,25.7
2022-07-26T15:55:00.108Z,25.7
2022-07-26T16:00:02.369Z,25.8
2022-07-26T16:05:00.087Z,25.7
2022-07-26T16:10:00.145Z,25.8
2022-07-26T16:15:00.080Z,25.8
2022-07-26T16:20:00.161Z,25.8
2022-07-26T16:25:00.126Z,25.8
2022-07-26T16:30:00.138Z,25.8
2022-07-26T16:35:00.087Z,25.8
2022-07-26T16:40:01.953Z,25.8
2022-07-26T16:45:00.113Z,25.7
2022-07-26T16:50:00.560Z,25.7
2022-07-26T16:55:00.087Z,25.7
2022-07-26T17:00:00.148Z,25.7
2022-07-26T17:05:00.087Z,25.7
2022-07-26T17:10:00.140Z,25.7
2022-07-26T17:15:00.122Z,25.7
2022-07-26T17:20:00.149Z,25.8
2022-07-26T17:25:00.101Z,25.8
2022-07-26T17:30:06.147Z,25.8
2022-07-26T17:35:00.098Z,25.8
2022-07-26T17:40:01.604Z,25.8
2022-07-26T17:45:00.108Z,25.8
2022-07-26T17:55:00.103Z,25.8
2022-07-26T18:00:04.497Z,25.8
2022-07-26T18:05:00.125Z,25.8
2022-07-26T18:10:00.104Z,25.8
2022-07-26T18:15:00.127Z,25.8
2022-07-26T18:20:00.140Z,25.8
2022-07-26T18:25:00.079Z,25.8
2022-07-26T18:30:00.146Z,25.8
2022-07-26T18:35:00.106Z,25.7
2022-07-26T18:40:01.300Z,25.7
2022-07-26T18:45:00.114Z,25.7
2022-07-26T18:50:00.154Z,25.7
2022-07-26T18:55:00.081Z,25.7
2022-07-26T19:00:00.119Z,25.7
2022-07-26T19:05:00.085Z,25.7
2022-07-26T19:10:00.132Z,25.6
2022-07-26T19:15:00.162Z,25.6
2022-07-26T19:20:01.687Z,25.6
2022-07-26T19:25:00.074Z,25.6
2022-07-26T19:30:00.222Z,25.6
2022-07-26T19:35:00.086Z,25.5
2022-07-26T19:40:00.117Z,25.5
2022-07-26T19:45:01.481Z,25.5
2022-07-26T19:50:00.098Z,25.5
2022-07-26T19:55:00.080Z,25.5
2022-07-26T20:00:00.121Z,25.6
2022-07-26T20:05:00.096Z,25.5
2022-07-26T20:10:00.182Z,25.5
2022-07-26T20:15:00.161Z,25.6
2022-07-26T20:20:00.159Z,25.6
2022-07-26T20:25:00.149Z,25.6
2022-07-26T20:30:01.192Z,25.6
2022-07-26T20:35:00.144Z,25.6
2022-07-26T20:40:00.221Z,25.6
2022-07-26T20:45:00.153Z,25.6
2022-07-26T20:50:03.276Z,25.7
2022-07-26T20:55:00.085Z,25.7
2022-07-26T21:00:00.165Z,25.6
2022-07-26T21:05:00.077Z,25.7
2022-07-26T21:10:00.147Z,25.7
2022-07-26T21:15:00.133Z,25.7
2022-07-26T21:20:00.117Z,25.7
2022-07-26T21:25:00.072Z,25.7
2022-07-26T21:30:00.133Z,25.7
2022-07-26T21:35:01.349Z,25.7
2022-07-26T21:40:00.759Z,25.7
2022-07-26T21:45:00.114Z,25.7
2022-07-26T21:50:00.117Z,25.8
2022-07-26T21:55:00.074Z,25.8
2022-07-26T22:00:00.125Z,25.8
2022-07-26T22:05:00.083Z,25.8
2022-07-26T22:10:00.170Z,25.8
2022-07-26T22:15:01.798Z,25.8
2022-07-26T22:20:00.091Z,25.8
2022-07-26T22:25:00.077Z,25.8
2022-07-26T22:30:00.255Z,25.8
2022-07-26T22:35:00.089Z,25.8
2022-07-26T22:40:00.134Z,25.8
2022-07-26T22:45:00.083Z,25.8
2022-07-26T22:50:00.104Z,25.8
2022-07-26T22:55:00.107Z,25.8
2022-07-26T23:00:00.081Z,25.9
2022-07-26T23:05:00.109Z,25.8
2022-07-26T23:10:00.154Z,25.8
2022-07-26T23:15:00.105Z,25.8
2022-07-26T23:20:00.129Z,25.8
2022-07-26T23:25:00.138Z,25.8
2022-07-26T23:30:00.108Z,25.8
2022-07-26T23:35:00.105Z,25.8
2022-07-26T23:40:00.127Z,25.8
2022-07-26T23:45:01.263Z,25.8
2022-07-26T23:50:00.131Z,25.8
2022-07-26T23:55:00.103Z,25.8
